Beloretsk, Russia
Current Conditions -  °F | °C
As of 5:00 AM on Thursday 23 Oct 2014 (Local Time) from UWUU Reporting Station
Overcast Overcast  
Wind Chill: 11°   Ceiling: 2200
Heat Index: 25°   Visibility: 6mi
Dew Point: 14°   Wind: 18mph
Humidity: 64%   Direction: 280°W
Pressure: 29.65"   Gusts: 25mph
Location:  54.55°N, 56.32°E
Report Text: UWUU 230000Z 28008G11MPS 9999 OVC022 M04/M10 Q1004 320///60NOSIG RMK QFE740/0987
Loading
Personal Weather Stations






























Interactive Weather Map
Tropical Storm Tracking
New forecast layout! Learn more

10-Day Weather Forecast

Advertisements
Track Severe Weather on mobile